sensor_id;sensor_type;location;lat;lon;timestamp;P1;durP1;ratioP1;P2;durP2;ratioP2
6406;SDS011;3236;51.022;6.818;2024-03-02T00:00:56;2.67;;;1.60;;
6406;SDS011;3236;51.022;6.818;2024-03-02T00:03:26;5.88;;;1.90;;
6406;SDS011;3236;51.022;6.818;2024-03-02T00:05:53;4.93;;;1.52;;
6406;SDS011;3236;51.022;6.818;2024-03-02T00:08:22;2.22;;;1.52;;
6406;SDS011;3236;51.022;6.818;2024-03-02T00:10:53;3.72;;;1.60;;
6406;SDS011;3236;51.022;6.818;2024-03-02T00:13:24;6.13;;;2.40;;
6406;SDS011;3236;51.022;6.818;2024-03-02T00:15:51;3.28;;;1.45;;
6406;SDS011;3236;51.022;6.818;2024-03-02T00:18:20;1.52;;;1.17;;
6406;SDS011;3236;51.022;6.818;2024-03-02T00:20:52;3.00;;;1.63;;
6406;SDS011;3236;51.022;6.818;2024-03-02T00:23:21;2.55;;;1.70;;
6406;SDS011;3236;51.022;6.818;2024-03-02T00:25:49;3.05;;;1.52;;
6406;SDS011;3236;51.022;6.818;2024-03-02T00:28:20;3.15;;;1.75;;
6406;SDS011;3236;51.022;6.818;2024-03-02T00:30:52;2.90;;;1.88;;
6406;SDS011;3236;51.022;6.818;2024-03-02T00:33:22;2.95;;;1.80;;
6406;SDS011;3236;51.022;6.818;2024-03-02T00:35:50;2.40;;;1.70;;
6406;SDS011;3236;51.022;6.818;2024-03-02T00:38:18;2.53;;;1.45;;
6406;SDS011;3236;51.022;6.818;2024-03-02T00:40:45;2.90;;;1.50;;
6406;SDS011;3236;51.022;6.818;2024-03-02T00:43:20;3.65;;;1.80;;
6406;SDS011;3236;51.022;6.818;2024-03-02T00:46:11;2.70;;;1.77;;
6406;SDS011;3236;51.022;6.818;2024-03-02T00:48:39;4.55;;;1.95;;
6406;SDS011;3236;51.022;6.818;2024-03-02T00:51:12;3.38;;;1.70;;
6406;SDS011;3236;51.022;6.818;2024-03-02T00:53:40;2.50;;;1.63;;
6406;SDS011;3236;51.022;6.818;2024-03-02T00:56:09;3.05;;;1.40;;
6406;SDS011;3236;51.022;6.818;2024-03-02T00:58:37;2.65;;;1.73;;
6406;SDS011;3236;51.022;6.818;2024-03-02T01:01:06;3.90;;;1.50;;
6406;SDS011;3236;51.022;6.818;2024-03-02T01:03:34;3.03;;;1.42;;
6406;SDS011;3236;51.022;6.818;2024-03-02T01:06:03;2.80;;;1.80;;
6406;SDS011;3236;51.022;6.818;2024-03-02T01:08:33;3.78;;;1.92;;
6406;SDS011;3236;51.022;6.818;2024-03-02T01:11:00;3.35;;;1.63;;
6406;SDS011;3236;51.022;6.818;2024-03-02T01:13:28;2.60;;;1.50;;
6406;SDS011;3236;51.022;6.818;2024-03-02T01:15:55;2.72;;;1.60;;
6406;SDS011;3236;51.022;6.818;2024-03-02T01:18:25;4.97;;;1.60;;
6406;SDS011;3236;51.022;6.818;2024-03-02T01:20:54;2.67;;;1.90;;
6406;SDS011;3236;51.022;6.818;2024-03-02T01:23:21;2.13;;;1.35;;
6406;SDS011;3236;51.022;6.818;2024-03-02T01:25:49;3.20;;;1.50;;
6406;SDS011;3236;51.022;6.818;2024-03-02T01:28:16;4.50;;;1.77;;
6406;SDS011;3236;51.022;6.818;2024-03-02T01:30:44;2.92;;;1.73;;
6406;SDS011;3236;51.022;6.818;2024-03-02T01:33:11;1.45;;;1.35;;
6406;SDS011;3236;51.022;6.818;2024-03-02T01:35:39;3.95;;;1.50;;
6406;SDS011;3236;51.022;6.818;2024-03-02T01:38:06;2.67;;;1.48;;
6406;SDS011;3236;51.022;6.818;2024-03-02T01:40:37;2.60;;;1.58;;
6406;SDS011;3236;51.022;6.818;2024-03-02T01:43:05;1.92;;;1.52;;
6406;SDS011;3236;51.022;6.818;2024-03-02T01:45:32;2.17;;;1.52;;
6406;SDS011;3236;51.022;6.818;2024-03-02T01:48:00;3.67;;;1.58;;
6406;SDS011;3236;51.022;6.818;2024-03-02T01:50:28;2.63;;;2.08;;
6406;SDS011;3236;51.022;6.818;2024-03-02T01:52:57;1.77;;;1.48;;
6406;SDS011;3236;51.022;6.818;2024-03-02T01:55:30;4.07;;;1.50;;
6406;SDS011;3236;51.022;6.818;2024-03-02T01:57:59;1.83;;;1.40;;
6406;SDS011;3236;51.022;6.818;2024-03-02T02:00:27;3.22;;;1.50;;
6406;SDS011;3236;51.022;6.818;2024-03-02T02:02:55;3.40;;;1.45;;
6406;SDS011;3236;51.022;6.818;2024-03-02T02:05:22;3.70;;;1.70;;
6406;SDS011;3236;51.022;6.818;2024-03-02T02:07:50;1.92;;;1.30;;
6406;SDS011;3236;51.022;6.818;2024-03-02T02:10:18;3.97;;;1.75;;
6406;SDS011;3236;51.022;6.818;2024-03-02T02:12:46;5.70;;;1.40;;
6406;SDS011;3236;51.022;6.818;2024-03-02T02:15:23;4.57;;;1.63;;
6406;SDS011;3236;51.022;6.818;2024-03-02T02:17:51;2.35;;;1.50;;
6406;SDS011;3236;51.022;6.818;2024-03-02T02:20:18;3.15;;;1.65;;
6406;SDS011;3236;51.022;6.818;2024-03-02T02:22:56;3.35;;;1.73;;
6406;SDS011;3236;51.022;6.818;2024-03-02T02:25:30;3.08;;;1.60;;
6406;SDS011;3236;51.022;6.818;2024-03-02T02:27:57;3.00;;;1.70;;
6406;SDS011;3236;51.022;6.818;2024-03-02T02:30:26;3.72;;;1.67;;
6406;SDS011;3236;51.022;6.818;2024-03-02T02:32:53;2.38;;;1.70;;
6406;SDS011;3236;51.022;6.818;2024-03-02T02:35:22;1.67;;;1.30;;
6406;SDS011;3236;51.022;6.818;2024-03-02T02:37:50;2.78;;;1.58;;
6406;SDS011;3236;51.022;6.818;2024-03-02T02:40:19;1.40;;;1.25;;
6406;SDS011;3236;51.022;6.818;2024-03-02T02:42:46;2.22;;;1.27;;
6406;SDS011;3236;51.022;6.818;2024-03-02T02:45:14;2.03;;;1.65;;
6406;SDS011;3236;51.022;6.818;2024-03-02T02:47:42;2.50;;;1.50;;
6406;SDS011;3236;51.022;6.818;2024-03-02T02:50:10;3.17;;;1.63;;
6406;SDS011;3236;51.022;6.818;2024-03-02T02:52:38;4.20;;;1.80;;
6406;SDS011;3236;51.022;6.818;2024-03-02T02:55:07;2.08;;;1.48;;
6406;SDS011;3236;51.022;6.818;2024-03-02T02:57:36;3.28;;;1.90;;
6406;SDS011;3236;51.022;6.818;2024-03-02T03:00:05;3.28;;;1.60;;
6406;SDS011;3236;51.022;6.818;2024-03-02T03:02:35;5.82;;;1.40;;
6406;SDS011;3236;51.022;6.818;2024-03-02T03:05:04;2.10;;;1.30;;
6406;SDS011;3236;51.022;6.818;2024-03-02T03:07:31;3.55;;;1.42;;
6406;SDS011;3236;51.022;6.818;2024-03-02T03:09:59;4.78;;;1.40;;
6406;SDS011;3236;51.022;6.818;2024-03-02T03:12:26;1.92;;;1.30;;
6406;SDS011;3236;51.022;6.818;2024-03-02T03:14:56;4.20;;;1.50;;
6406;SDS011;3236;51.022;6.818;2024-03-02T03:17:23;1.77;;;1.52;;
6406;SDS011;3236;51.022;6.818;2024-03-02T03:19:54;2.30;;;1.35;;
6406;SDS011;3236;51.022;6.818;2024-03-02T03:22:30;2.45;;;1.45;;
6406;SDS011;3236;51.022;6.818;2024-03-02T03:24:57;1.60;;;1.50;;
6406;SDS011;3236;51.022;6.818;2024-03-02T03:27:24;1.33;;;1.20;;
6406;SDS011;3236;51.022;6.818;2024-03-02T03:29:51;2.35;;;1.60;;
6406;SDS011;3236;51.022;6.818;2024-03-02T03:32:21;1.45;;;1.30;;
6406;SDS011;3236;51.022;6.818;2024-03-02T03:34:48;2.75;;;1.10;;
6406;SDS011;3236;51.022;6.818;2024-03-02T03:37:17;2.90;;;1.55;;
6406;SDS011;3236;51.022;6.818;2024-03-02T03:39:44;1.63;;;1.33;;
6406;SDS011;3236;51.022;6.818;2024-03-02T03:42:14;2.10;;;1.50;;
6406;SDS011;3236;51.022;6.818;2024-03-02T03:44:44;3.75;;;1.30;;
6406;SDS011;3236;51.022;6.818;2024-03-02T03:47:11;4.65;;;1.80;;
6406;SDS011;3236;51.022;6.818;2024-03-02T03:49:43;2.22;;;1.55;;
6406;SDS011;3236;51.022;6.818;2024-03-02T03:52:10;2.72;;;1.50;;
6406;SDS011;3236;51.022;6.818;2024-03-02T03:54:37;2.83;;;1.50;;
6406;SDS011;3236;51.022;6.818;2024-03-02T03:57:07;1.70;;;1.30;;
6406;SDS011;3236;51.022;6.818;2024-03-02T03:59:34;1.55;;;1.30;;
6406;SDS011;3236;51.022;6.818;2024-03-02T04:02:03;4.32;;;1.42;;
6406;SDS011;3236;51.022;6.818;2024-03-02T04:04:30;3.05;;;1.77;;
6406;SDS011;3236;51.022;6.818;2024-03-02T04:07:00;1.35;;;1.25;;
6406;SDS011;3236;51.022;6.818;2024-03-02T04:09:27;2.03;;;1.42;;
6406;SDS011;3236;51.022;6.818;2024-03-02T04:11:54;2.45;;;1.58;;
6406;SDS011;3236;51.022;6.818;2024-03-02T04:14:24;3.97;;;1.70;;
6406;SDS011;3236;51.022;6.818;2024-03-02T04:16:51;5.40;;;2.05;;
6406;SDS011;3236;51.022;6.818;2024-03-02T04:19:18;3.85;;;1.92;;
6406;SDS011;3236;51.022;6.818;2024-03-02T04:21:45;2.00;;;1.40;;
6406;SDS011;3236;51.022;6.818;2024-03-02T04:24:19;2.63;;;1.52;;
6406;SDS011;3236;51.022;6.818;2024-03-02T04:26:46;1.50;;;1.33;;
6406;SDS011;3236;51.022;6.818;2024-03-02T04:29:14;3.95;;;1.65;;
6406;SDS011;3236;51.022;6.818;2024-03-02T04:31:41;1.95;;;1.45;;
6406;SDS011;3236;51.022;6.818;2024-03-02T04:34:08;2.85;;;1.27;;
6406;SDS011;3236;51.022;6.818;2024-03-02T04:36:35;3.78;;;1.50;;
6406;SDS011;3236;51.022;6.818;2024-03-02T04:39:02;1.58;;;1.30;;
6406;SDS011;3236;51.022;6.818;2024-03-02T04:41:32;2.17;;;1.50;;
6406;SDS011;3236;51.022;6.818;2024-03-02T04:43:59;3.05;;;1.63;;
6406;SDS011;3236;51.022;6.818;2024-03-02T04:46:27;1.73;;;1.40;;
6406;SDS011;3236;51.022;6.818;2024-03-02T04:48:54;6.40;;;1.73;;
6406;SDS011;3236;51.022;6.818;2024-03-02T04:51:22;2.85;;;1.38;;
6406;SDS011;3236;51.022;6.818;2024-03-02T04:53:49;3.08;;;1.50;;
6406;SDS011;3236;51.022;6.818;2024-03-02T04:56:16;4.05;;;1.75;;
6406;SDS011;3236;51.022;6.818;2024-03-02T04:59:06;4.30;;;1.88;;
6406;SDS011;3236;51.022;6.818;2024-03-02T05:01:33;3.40;;;1.55;;
6406;SDS011;3236;51.022;6.818;2024-03-02T05:04:00;2.70;;;1.80;;
6406;SDS011;3236;51.022;6.818;2024-03-02T05:06:28;2.08;;;1.50;;
6406;SDS011;3236;51.022;6.818;2024-03-02T05:08:58;3.03;;;1.98;;
6406;SDS011;3236;51.022;6.818;2024-03-02T05:11:25;3.83;;;1.73;;
6406;SDS011;3236;51.022;6.818;2024-03-02T05:14:15;3.25;;;1.50;;
6406;SDS011;3236;51.022;6.818;2024-03-02T05:16:41;2.45;;;1.60;;
6406;SDS011;3236;51.022;6.818;2024-03-02T05:19:08;3.05;;;1.85;;
6406;SDS011;3236;51.022;6.818;2024-03-02T05:21:41;3.33;;;1.55;;
6406;SDS011;3236;51.022;6.818;2024-03-02T05:24:08;2.08;;;1.75;;
6406;SDS011;3236;51.022;6.818;2024-03-02T05:26:35;3.78;;;2.13;;
6406;SDS011;3236;51.022;6.818;2024-03-02T05:29:03;4.28;;;1.85;;
6406;SDS011;3236;51.022;6.818;2024-03-02T05:31:34;1.95;;;1.48;;
6406;SDS011;3236;51.022;6.818;2024-03-02T05:34:01;3.58;;;1.67;;
6406;SDS011;3236;51.022;6.818;2024-03-02T05:36:28;4.47;;;1.60;;
6406;SDS011;3236;51.022;6.818;2024-03-02T05:38:56;4.18;;;1.70;;
6406;SDS011;3236;51.022;6.818;2024-03-02T05:41:25;2.55;;;1.60;;
6406;SDS011;3236;51.022;6.818;2024-03-02T05:43:52;4.47;;;2.00;;
6406;SDS011;3236;51.022;6.818;2024-03-02T05:46:22;3.00;;;2.15;;
6406;SDS011;3236;51.022;6.818;2024-03-02T05:48:50;5.25;;;2.30;;
6406;SDS011;3236;51.022;6.818;2024-03-02T05:51:17;4.22;;;2.05;;
6406;SDS011;3236;51.022;6.818;2024-03-02T05:53:44;3.85;;;2.50;;
6406;SDS011;3236;51.022;6.818;2024-03-02T05:56:12;2.58;;;2.38;;
6406;SDS011;3236;51.022;6.818;2024-03-02T05:58:40;6.32;;;2.20;;
6406;SDS011;3236;51.022;6.818;2024-03-02T06:01:22;2.97;;;1.88;;
6406;SDS011;3236;51.022;6.818;2024-03-02T06:03:55;3.58;;;1.50;;
6406;SDS011;3236;51.022;6.818;2024-03-02T06:06:22;4.30;;;2.05;;
6406;SDS011;3236;51.022;6.818;2024-03-02T06:08:49;5.97;;;1.90;;
6406;SDS011;3236;51.022;6.818;2024-03-02T06:11:16;3.08;;;2.13;;
6406;SDS011;3236;51.022;6.818;2024-03-02T06:13:44;2.10;;;1.90;;
6406;SDS011;3236;51.022;6.818;2024-03-02T06:16:11;3.75;;;1.85;;
6406;SDS011;3236;51.022;6.818;2024-03-02T06:18:39;4.20;;;2.35;;
6406;SDS011;3236;51.022;6.818;2024-03-02T06:21:07;2.83;;;1.88;;
6406;SDS011;3236;51.022;6.818;2024-03-02T06:23:34;2.50;;;1.90;;
6406;SDS011;3236;51.022;6.818;2024-03-02T06:26:01;6.82;;;1.85;;
6406;SDS011;3236;51.022;6.818;2024-03-02T06:28:28;4.65;;;2.35;;
6406;SDS011;3236;51.022;6.818;2024-03-02T06:30:56;3.50;;;2.00;;
6406;SDS011;3236;51.022;6.818;2024-03-02T06:33:23;5.78;;;1.92;;
6406;SDS011;3236;51.022;6.818;2024-03-02T06:35:51;2.75;;;1.58;;
6406;SDS011;3236;51.022;6.818;2024-03-02T06:38:19;5.22;;;1.95;;
6406;SDS011;3236;51.022;6.818;2024-03-02T06:40:46;3.00;;;2.17;;
6406;SDS011;3236;51.022;6.818;2024-03-02T06:43:13;6.60;;;2.15;;
6406;SDS011;3236;51.022;6.818;2024-03-02T06:45:41;2.10;;;1.90;;
6406;SDS011;3236;51.022;6.818;2024-03-02T06:48:08;5.15;;;2.30;;
6406;SDS011;3236;51.022;6.818;2024-03-02T06:50:35;5.88;;;2.13;;
6406;SDS011;3236;51.022;6.818;2024-03-02T06:53:03;3.17;;;1.88;;
6406;SDS011;3236;51.022;6.818;2024-03-02T06:55:32;2.83;;;1.80;;
6406;SDS011;3236;51.022;6.818;2024-03-02T06:57:59;4.22;;;2.50;;
6406;SDS011;3236;51.022;6.818;2024-03-02T07:00:26;10.55;;;3.13;;
6406;SDS011;3236;51.022;6.818;2024-03-02T07:02:54;6.45;;;3.40;;
6406;SDS011;3236;51.022;6.818;2024-03-02T07:05:24;6.45;;;3.88;;
6406;SDS011;3236;51.022;6.818;2024-03-02T07:07:51;11.10;;;5.15;;
6406;SDS011;3236;51.022;6.818;2024-03-02T07:10:24;14.70;;;5.65;;
6406;SDS011;3236;51.022;6.818;2024-03-02T07:12:53;10.38;;;5.30;;
6406;SDS011;3236;51.022;6.818;2024-03-02T07:15:20;7.82;;;4.03;;
6406;SDS011;3236;51.022;6.818;2024-03-02T07:18:08;10.05;;;4.40;;
6406;SDS011;3236;51.022;6.818;2024-03-02T07:20:35;9.52;;;4.63;;
6406;SDS011;3236;51.022;6.818;2024-03-02T07:23:07;9.25;;;4.30;;
6406;SDS011;3236;51.022;6.818;2024-03-02T07:25:34;6.65;;;4.13;;
6406;SDS011;3236;51.022;6.818;2024-03-02T07:28:03;8.45;;;3.50;;
6406;SDS011;3236;51.022;6.818;2024-03-02T07:30:32;8.87;;;3.30;;
6406;SDS011;3236;51.022;6.818;2024-03-02T07:32:59;6.57;;;2.90;;
6406;SDS011;3236;51.022;6.818;2024-03-02T07:35:26;6.72;;;3.20;;
6406;SDS011;3236;51.022;6.818;2024-03-02T07:37:56;7.68;;;3.35;;
6406;SDS011;3236;51.022;6.818;2024-03-02T07:40:23;3.90;;;1.85;;
6406;SDS011;3236;51.022;6.818;2024-03-02T07:42:51;3.90;;;1.70;;
6406;SDS011;3236;51.022;6.818;2024-03-02T07:45:19;7.07;;;2.22;;
6406;SDS011;3236;51.022;6.818;2024-03-02T07:47:46;7.85;;;2.53;;
6406;SDS011;3236;51.022;6.818;2024-03-02T07:50:15;7.00;;;2.55;;
6406;SDS011;3236;51.022;6.818;2024-03-02T07:52:42;6.35;;;2.00;;
6406;SDS011;3236;51.022;6.818;2024-03-02T07:55:09;3.80;;;1.75;;
6406;SDS011;3236;51.022;6.818;2024-03-02T07:57:36;4.03;;;1.73;;
6406;SDS011;3236;51.022;6.818;2024-03-02T08:00:04;4.35;;;1.83;;
6406;SDS011;3236;51.022;6.818;2024-03-02T08:02:33;4.60;;;1.52;;
6406;SDS011;3236;51.022;6.818;2024-03-02T08:05:01;4.15;;;1.67;;
6406;SDS011;3236;51.022;6.818;2024-03-02T08:07:28;5.45;;;2.03;;
6406;SDS011;3236;51.022;6.818;2024-03-02T08:09:55;3.67;;;1.35;;
6406;SDS011;3236;51.022;6.818;2024-03-02T08:12:22;4.50;;;1.33;;
6406;SDS011;3236;51.022;6.818;2024-03-02T08:14:50;2.80;;;1.60;;
6406;SDS011;3236;51.022;6.818;2024-03-02T08:17:17;3.92;;;1.50;;
6406;SDS011;3236;51.022;6.818;2024-03-02T08:19:45;2.65;;;1.33;;
6406;SDS011;3236;51.022;6.818;2024-03-02T08:22:13;2.38;;;1.30;;
6406;SDS011;3236;51.022;6.818;2024-03-02T08:24:41;7.40;;;2.00;;
6406;SDS011;3236;51.022;6.818;2024-03-02T08:27:08;3.63;;;1.50;;
6406;SDS011;3236;51.022;6.818;2024-03-02T08:29:35;3.25;;;1.65;;
6406;SDS011;3236;51.022;6.818;2024-03-02T08:32:02;2.42;;;1.83;;
6406;SDS011;3236;51.022;6.818;2024-03-02T08:34:30;4.38;;;1.77;;
6406;SDS011;3236;51.022;6.818;2024-03-02T08:36:58;2.20;;;1.70;;
6406;SDS011;3236;51.022;6.818;2024-03-02T08:39:25;3.22;;;1.77;;
6406;SDS011;3236;51.022;6.818;2024-03-02T08:41:53;4.32;;;2.33;;
6406;SDS011;3236;51.022;6.818;2024-03-02T08:44:20;2.25;;;1.55;;
6406;SDS011;3236;51.022;6.818;2024-03-02T08:46:47;2.95;;;1.40;;
6406;SDS011;3236;51.022;6.818;2024-03-02T08:49:15;4.05;;;1.70;;
6406;SDS011;3236;51.022;6.818;2024-03-02T08:51:42;3.65;;;1.60;;
6406;SDS011;3236;51.022;6.818;2024-03-02T08:54:11;5.45;;;1.80;;
6406;SDS011;3236;51.022;6.818;2024-03-02T08:56:38;3.78;;;1.52;;
6406;SDS011;3236;51.022;6.818;2024-03-02T08:59:05;2.70;;;1.42;;
6406;SDS011;3236;51.022;6.818;2024-03-02T09:01:32;4.00;;;1.20;;
6406;SDS011;3236;51.022;6.818;2024-03-02T09:03:59;5.18;;;1.25;;
6406;SDS011;3236;51.022;6.818;2024-03-02T09:06:27;2.42;;;1.20;;
6406;SDS011;3236;51.022;6.818;2024-03-02T09:08:54;4.38;;;1.77;;
6406;SDS011;3236;51.022;6.818;2024-03-02T09:11:22;4.47;;;1.75;;
6406;SDS011;3236;51.022;6.818;2024-03-02T09:13:50;2.72;;;1.20;;
6406;SDS011;3236;51.022;6.818;2024-03-02T09:16:18;3.92;;;1.40;;
6406;SDS011;3236;51.022;6.818;2024-03-02T09:18:45;4.25;;;1.45;;
6406;SDS011;3236;51.022;6.818;2024-03-02T09:21:15;2.90;;;1.30;;
6406;SDS011;3236;51.022;6.818;2024-03-02T09:23:42;2.70;;;1.20;;
6406;SDS011;3236;51.022;6.818;2024-03-02T09:26:11;2.13;;;1.20;;
6406;SDS011;3236;51.022;6.818;2024-03-02T09:28:41;2.65;;;1.30;;
6406;SDS011;3236;51.022;6.818;2024-03-02T09:31:09;3.85;;;2.00;;
6406;SDS011;3236;51.022;6.818;2024-03-02T09:33:37;2.15;;;1.25;;
6406;SDS011;3236;51.022;6.818;2024-03-02T09:36:04;3.67;;;1.52;;
6406;SDS011;3236;51.022;6.818;2024-03-02T09:38:32;3.05;;;1.00;;
6406;SDS011;3236;51.022;6.818;2024-03-02T09:40:59;3.55;;;1.10;;
6406;SDS011;3236;51.022;6.818;2024-03-02T09:43:27;1.75;;;0.95;;
6406;SDS011;3236;51.022;6.818;2024-03-02T09:45:55;5.53;;;0.90;;
6406;SDS011;3236;51.022;6.818;2024-03-02T09:48:22;1.65;;;0.77;;
6406;SDS011;3236;51.022;6.818;2024-03-02T09:50:49;1.98;;;0.80;;
6406;SDS011;3236;51.022;6.818;2024-03-02T09:53:17;1.90;;;0.65;;
6406;SDS011;3236;51.022;6.818;2024-03-02T09:55:45;2.05;;;0.65;;
6406;SDS011;3236;51.022;6.818;2024-03-02T09:58:13;1.42;;;0.85;;
6406;SDS011;3236;51.022;6.818;2024-03-02T10:00:40;1.85;;;0.77;;
6406;SDS011;3236;51.022;6.818;2024-03-02T10:03:12;1.20;;;0.60;;
6406;SDS011;3236;51.022;6.818;2024-03-02T10:05:48;1.10;;;0.88;;
6406;SDS011;3236;51.022;6.818;2024-03-02T10:08:16;3.13;;;0.60;;
6406;SDS011;3236;51.022;6.818;2024-03-02T10:10:44;3.70;;;0.88;;
6406;SDS011;3236;51.022;6.818;2024-03-02T10:13:11;4.25;;;0.90;;
6406;SDS011;3236;51.022;6.818;2024-03-02T10:15:40;2.85;;;1.20;;
6406;SDS011;3236;51.022;6.818;2024-03-02T10:18:08;4.13;;;1.38;;
6406;SDS011;3236;51.022;6.818;2024-03-02T10:20:38;2.80;;;1.02;;
6406;SDS011;3236;51.022;6.818;2024-03-02T10:23:12;1.92;;;1.20;;
6406;SDS011;3236;51.022;6.818;2024-03-02T10:25:42;3.05;;;0.90;;
6406;SDS011;3236;51.022;6.818;2024-03-02T10:28:10;3.45;;;1.00;;
6406;SDS011;3236;51.022;6.818;2024-03-02T10:30:38;2.15;;;0.85;;
6406;SDS011;3236;51.022;6.818;2024-03-02T10:33:05;0.85;;;0.77;;
6406;SDS011;3236;51.022;6.818;2024-03-02T10:35:33;1.77;;;0.93;;
6406;SDS011;3236;51.022;6.818;2024-03-02T10:38:03;2.28;;;0.80;;
6406;SDS011;3236;51.022;6.818;2024-03-02T10:40:31;1.52;;;0.75;;
6406;SDS011;3236;51.022;6.818;2024-03-02T10:42:58;2.03;;;0.90;;
6406;SDS011;3236;51.022;6.818;2024-03-02T10:45:26;2.92;;;0.93;;
6406;SDS011;3236;51.022;6.818;2024-03-02T10:47:53;2.60;;;1.15;;
6406;SDS011;3236;51.022;6.818;2024-03-02T10:50:21;5.70;;;1.67;;
6406;SDS011;3236;51.022;6.818;2024-03-02T10:52:49;3.00;;;1.35;;
6406;SDS011;3236;51.022;6.818;2024-03-02T10:55:18;1.10;;;1.00;;
6406;SDS011;3236;51.022;6.818;2024-03-02T10:57:48;2.38;;;1.30;;
6406;SDS011;3236;51.022;6.818;2024-03-02T11:00:18;2.28;;;1.25;;
6406;SDS011;3236;51.022;6.818;2024-03-02T11:02:50;2.17;;;1.33;;
6406;SDS011;3236;51.022;6.818;2024-03-02T11:05:24;3.03;;;1.35;;
6406;SDS011;3236;51.022;6.818;2024-03-02T11:07:56;1.08;;;0.93;;
6406;SDS011;3236;51.022;6.818;2024-03-02T11:10:32;3.00;;;1.23;;
6406;SDS011;3236;51.022;6.818;2024-03-02T11:13:04;8.75;;;1.45;;
6406;SDS011;3236;51.022;6.818;2024-03-02T11:15:35;5.50;;;1.20;;
6406;SDS011;3236;51.022;6.818;2024-03-02T11:18:03;3.20;;;1.35;;
6406;SDS011;3236;51.022;6.818;2024-03-02T11:20:35;2.60;;;1.30;;
6406;SDS011;3236;51.022;6.818;2024-03-02T11:23:05;5.60;;;1.52;;
6406;SDS011;3236;51.022;6.818;2024-03-02T11:25:34;4.93;;;1.85;;
6406;SDS011;3236;51.022;6.818;2024-03-02T11:28:03;3.03;;;0.98;;
6406;SDS011;3236;51.022;6.818;2024-03-02T11:30:49;3.70;;;1.10;;
6406;SDS011;3236;51.022;6.818;2024-03-02T11:33:22;3.80;;;1.25;;
6406;SDS011;3236;51.022;6.818;2024-03-02T11:35:52;3.60;;;1.55;;
6406;SDS011;3236;51.022;6.818;2024-03-02T11:38:19;3.10;;;1.23;;
6406;SDS011;3236;51.022;6.818;2024-03-02T11:40:48;4.13;;;1.40;;
6406;SDS011;3236;51.022;6.818;2024-03-02T11:43:19;3.90;;;1.33;;
6406;SDS011;3236;51.022;6.818;2024-03-02T11:45:46;4.40;;;1.80;;
6406;SDS011;3236;51.022;6.818;2024-03-02T11:48:15;3.40;;;1.27;;
6406;SDS011;3236;51.022;6.818;2024-03-02T11:50:46;2.67;;;1.02;;
6406;SDS011;3236;51.022;6.818;2024-03-02T11:53:15;4.03;;;1.20;;
6406;SDS011;3236;51.022;6.818;2024-03-02T11:55:43;3.67;;;1.85;;
6406;SDS011;3236;51.022;6.818;2024-03-02T11:58:13;1.80;;;1.20;;
6406;SDS011;3236;51.022;6.818;2024-03-02T12:00:43;2.53;;;1.52;;
6406;SDS011;3236;51.022;6.818;2024-03-02T12:03:12;1.50;;;1.20;;
6406;SDS011;3236;51.022;6.818;2024-03-02T12:05:39;1.70;;;1.10;;
6406;SDS011;3236;51.022;6.818;2024-03-02T12:08:08;1.92;;;1.02;;
6406;SDS011;3236;51.022;6.818;2024-03-02T12:10:35;3.95;;;1.17;;
6406;SDS011;3236;51.022;6.818;2024-03-02T12:13:04;3.97;;;1.00;;
6406;SDS011;3236;51.022;6.818;2024-03-02T12:15:34;4.60;;;1.23;;
6406;SDS011;3236;51.022;6.818;2024-03-02T12:18:03;4.43;;;1.13;;
6406;SDS011;3236;51.022;6.818;2024-03-02T12:20:30;2.25;;;1.05;;
6406;SDS011;3236;51.022;6.818;2024-03-02T12:22:59;2.00;;;1.50;;
6406;SDS011;3236;51.022;6.818;2024-03-02T12:25:27;1.83;;;1.10;;
6406;SDS011;3236;51.022;6.818;2024-03-02T12:27:56;1.83;;;1.08;;
6406;SDS011;3236;51.022;6.818;2024-03-02T12:30:24;1.90;;;1.00;;
6406;SDS011;3236;51.022;6.818;2024-03-02T12:32:56;1.10;;;1.00;;
6406;SDS011;3236;51.022;6.818;2024-03-02T12:35:24;1.05;;;0.90;;
6406;SDS011;3236;51.022;6.818;2024-03-02T12:37:52;0.82;;;0.80;;
6406;SDS011;3236;51.022;6.818;2024-03-02T12:40:22;2.05;;;1.00;;
6406;SDS011;3236;51.022;6.818;2024-03-02T12:42:50;1.92;;;1.00;;
6406;SDS011;3236;51.022;6.818;2024-03-02T12:45:17;2.15;;;1.23;;
6406;SDS011;3236;51.022;6.818;2024-03-02T12:47:48;1.52;;;1.27;;
6406;SDS011;3236;51.022;6.818;2024-03-02T12:50:18;1.30;;;1.10;;
6406;SDS011;3236;51.022;6.818;2024-03-02T12:52:50;3.25;;;1.15;;
6406;SDS011;3236;51.022;6.818;2024-03-02T12:55:19;5.50;;;2.85;;
6406;SDS011;3236;51.022;6.818;2024-03-02T12:57:47;2.25;;;1.15;;
6406;SDS011;3236;51.022;6.818;2024-03-02T13:00:14;1.73;;;1.35;;
6406;SDS011;3236;51.022;6.818;2024-03-02T13:02:43;3.75;;;1.30;;
6406;SDS011;3236;51.022;6.818;2024-03-02T13:05:10;2.38;;;1.10;;
6406;SDS011;3236;51.022;6.818;2024-03-02T13:07:42;3.53;;;1.35;;
6406;SDS011;3236;51.022;6.818;2024-03-02T13:10:12;1.85;;;1.02;;
6406;SDS011;3236;51.022;6.818;2024-03-02T13:12:39;1.20;;;0.85;;
6406;SDS011;3236;51.022;6.818;2024-03-02T13:15:06;2.28;;;0.90;;
6406;SDS011;3236;51.022;6.818;2024-03-02T13:17:35;2.70;;;1.00;;
6406;SDS011;3236;51.022;6.818;2024-03-02T13:20:02;1.58;;;0.90;;
6406;SDS011;3236;51.022;6.818;2024-03-02T13:22:33;0.93;;;0.90;;
6406;SDS011;3236;51.022;6.818;2024-03-02T13:25:02;3.30;;;1.00;;
6406;SDS011;3236;51.022;6.818;2024-03-02T13:27:30;1.77;;;1.27;;
6406;SDS011;3236;51.022;6.818;2024-03-02T13:29:58;2.13;;;0.88;;
6406;SDS011;3236;51.022;6.818;2024-03-02T13:32:25;2.90;;;1.20;;
6406;SDS011;3236;51.022;6.818;2024-03-02T13:34:52;7.90;;;1.40;;
6406;SDS011;3236;51.022;6.818;2024-03-02T13:37:19;1.05;;;1.00;;
6406;SDS011;3236;51.022;6.818;2024-03-02T13:39:47;1.92;;;1.20;;
6406;SDS011;3236;51.022;6.818;2024-03-02T13:42:16;1.00;;;0.77;;
6406;SDS011;3236;51.022;6.818;2024-03-02T13:44:43;2.13;;;1.13;;
6406;SDS011;3236;51.022;6.818;2024-03-02T13:47:13;1.90;;;0.95;;
6406;SDS011;3236;51.022;6.818;2024-03-02T13:49:40;2.10;;;1.05;;
6406;SDS011;3236;51.022;6.818;2024-03-02T13:52:09;1.23;;;1.02;;
6406;SDS011;3236;51.022;6.818;2024-03-02T13:54:41;1.60;;;1.00;;
6406;SDS011;3236;51.022;6.818;2024-03-02T13:57:09;0.73;;;0.70;;
6406;SDS011;3236;51.022;6.818;2024-03-02T13:59:38;2.42;;;0.80;;
6406;SDS011;3236;51.022;6.818;2024-03-02T14:02:07;1.63;;;1.10;;
6406;SDS011;3236;51.022;6.818;2024-03-02T14:04:35;2.13;;;1.00;;
6406;SDS011;3236;51.022;6.818;2024-03-02T14:07:05;1.70;;;0.80;;
6406;SDS011;3236;51.022;6.818;2024-03-02T14:09:33;2.28;;;1.00;;
6406;SDS011;3236;51.022;6.818;2024-03-02T14:12:01;1.17;;;0.82;;
6406;SDS011;3236;51.022;6.818;2024-03-02T14:14:30;0.85;;;0.85;;
6406;SDS011;3236;51.022;6.818;2024-03-02T14:16:59;1.30;;;0.90;;
6406;SDS011;3236;51.022;6.818;2024-03-02T14:19:29;1.00;;;0.90;;
6406;SDS011;3236;51.022;6.818;2024-03-02T14:21:56;0.77;;;0.70;;
6406;SDS011;3236;51.022;6.818;2024-03-02T14:24:24;0.80;;;0.80;;
6406;SDS011;3236;51.022;6.818;2024-03-02T14:26:51;1.42;;;0.85;;
6406;SDS011;3236;51.022;6.818;2024-03-02T14:29:18;1.00;;;0.70;;
6406;SDS011;3236;51.022;6.818;2024-03-02T14:31:46;3.10;;;0.98;;
6406;SDS011;3236;51.022;6.818;2024-03-02T14:34:28;1.75;;;0.88;;
6406;SDS011;3236;51.022;6.818;2024-03-02T14:36:55;2.58;;;0.88;;
6406;SDS011;3236;51.022;6.818;2024-03-02T14:39:23;1.15;;;0.90;;
6406;SDS011;3236;51.022;6.818;2024-03-02T14:41:50;1.13;;;1.02;;
6406;SDS011;3236;51.022;6.818;2024-03-02T14:44:18;2.40;;;1.00;;
6406;SDS011;3236;51.022;6.818;2024-03-02T14:46:46;0.98;;;0.80;;
6406;SDS011;3236;51.022;6.818;2024-03-02T14:49:14;1.00;;;0.90;;
6406;SDS011;3236;51.022;6.818;2024-03-02T14:51:43;1.20;;;0.90;;
6406;SDS011;3236;51.022;6.818;2024-03-02T14:54:12;1.80;;;1.55;;
6406;SDS011;3236;51.022;6.818;2024-03-02T14:56:39;1.25;;;1.00;;
6406;SDS011;3236;51.022;6.818;2024-03-02T14:59:06;2.22;;;1.17;;
6406;SDS011;3236;51.022;6.818;2024-03-02T15:01:33;1.85;;;1.20;;
6406;SDS011;3236;51.022;6.818;2024-03-02T15:04:00;1.00;;;0.88;;
6406;SDS011;3236;51.022;6.818;2024-03-02T15:06:28;1.85;;;1.15;;
6406;SDS011;3236;51.022;6.818;2024-03-02T15:08:57;2.13;;;1.30;;
6406;SDS011;3236;51.022;6.818;2024-03-02T15:11:26;2.50;;;1.27;;
6406;SDS011;3236;51.022;6.818;2024-03-02T15:13:53;3.35;;;1.52;;
6406;SDS011;3236;51.022;6.818;2024-03-02T15:16:21;2.47;;;1.40;;
6406;SDS011;3236;51.022;6.818;2024-03-02T15:18:50;2.85;;;1.10;;
6406;SDS011;3236;51.022;6.818;2024-03-02T15:21:17;2.95;;;1.30;;
6406;SDS011;3236;51.022;6.818;2024-03-02T15:23:45;1.30;;;1.20;;